sensor_id;sensor_type;location;lat;lon;timestamp;P1;durP1;ratioP1;P2;durP2;ratioP2
8640;SDS011;4358;42.100;25.222;2023-07-29T00:01:58;3.97;;;2.97;;
8640;SDS011;4358;42.100;25.222;2023-07-29T00:04:24;3.00;;;2.73;;
8640;SDS011;4358;42.100;25.222;2023-07-29T00:06:51;3.83;;;3.00;;
8640;SDS011;4358;42.100;25.222;2023-07-29T00:09:18;3.10;;;2.80;;
8640;SDS011;4358;42.100;25.222;2023-07-29T00:11:46;4.17;;;2.70;;
8640;SDS011;4358;42.100;25.222;2023-07-29T00:14:13;3.90;;;3.30;;
8640;SDS011;4358;42.100;25.222;2023-07-29T00:16:40;4.43;;;3.07;;
8640;SDS011;4358;42.100;25.222;2023-07-29T00:19:07;5.53;;;4.77;;
8640;SDS011;4358;42.100;25.222;2023-07-29T00:21:34;8.47;;;5.37;;
8640;SDS011;4358;42.100;25.222;2023-07-29T00:24:01;5.03;;;4.40;;
8640;SDS011;4358;42.100;25.222;2023-07-29T00:26:28;6.43;;;4.03;;
8640;SDS011;4358;42.100;25.222;2023-07-29T00:28:56;8.67;;;3.90;;
8640;SDS011;4358;42.100;25.222;2023-07-29T00:31:23;4.53;;;3.80;;
8640;SDS011;4358;42.100;25.222;2023-07-29T00:33:49;3.70;;;3.40;;
8640;SDS011;4358;42.100;25.222;2023-07-29T00:36:18;5.07;;;4.40;;
8640;SDS011;4358;42.100;25.222;2023-07-29T00:38:44;7.10;;;4.07;;
8640;SDS011;4358;42.100;25.222;2023-07-29T00:41:11;4.30;;;3.63;;
8640;SDS011;4358;42.100;25.222;2023-07-29T00:43:39;4.70;;;3.37;;
8640;SDS011;4358;42.100;25.222;2023-07-29T00:46:08;4.10;;;3.67;;
8640;SDS011;4358;42.100;25.222;2023-07-29T00:48:38;4.67;;;3.37;;
8640;SDS011;4358;42.100;25.222;2023-07-29T00:51:05;5.33;;;3.20;;
8640;SDS011;4358;42.100;25.222;2023-07-29T00:53:31;3.17;;;2.87;;
8640;SDS011;4358;42.100;25.222;2023-07-29T00:55:58;3.53;;;3.23;;
8640;SDS011;4358;42.100;25.222;2023-07-29T00:58:26;3.70;;;3.23;;
8640;SDS011;4358;42.100;25.222;2023-07-29T01:00:53;4.43;;;3.37;;
8640;SDS011;4358;42.100;25.222;2023-07-29T01:03:22;5.23;;;3.43;;
8640;SDS011;4358;42.100;25.222;2023-07-29T01:05:50;3.50;;;3.20;;
8640;SDS011;4358;42.100;25.222;2023-07-29T01:08:29;3.50;;;3.20;;
8640;SDS011;4358;42.100;25.222;2023-07-29T01:11:03;7.03;;;3.10;;
8640;SDS011;4358;42.100;25.222;2023-07-29T01:13:44;4.33;;;3.47;;
8640;SDS011;4358;42.100;25.222;2023-07-29T01:16:19;3.30;;;3.00;;
8640;SDS011;4358;42.100;25.222;2023-07-29T01:18:51;4.87;;;3.30;;
8640;SDS011;4358;42.100;25.222;2023-07-29T01:21:21;4.93;;;3.23;;
8640;SDS011;4358;42.100;25.222;2023-07-29T01:23:53;3.63;;;3.17;;
8640;SDS011;4358;42.100;25.222;2023-07-29T01:26:24;5.43;;;4.77;;
8640;SDS011;4358;42.100;25.222;2023-07-29T01:28:51;18.37;;;13.20;;
8640;SDS011;4358;42.100;25.222;2023-07-29T01:31:20;13.23;;;9.90;;
8640;SDS011;4358;42.100;25.222;2023-07-29T01:33:56;13.90;;;10.23;;
8640;SDS011;4358;42.100;25.222;2023-07-29T01:36:26;14.00;;;12.60;;
8640;SDS011;4358;42.100;25.222;2023-07-29T01:38:57;16.43;;;13.87;;
8640;SDS011;4358;42.100;25.222;2023-07-29T01:41:24;16.63;;;14.13;;
8640;SDS011;4358;42.100;25.222;2023-07-29T01:43:51;10.00;;;9.00;;
8640;SDS011;4358;42.100;25.222;2023-07-29T01:46:19;10.10;;;8.40;;
8640;SDS011;4358;42.100;25.222;2023-07-29T01:48:46;9.43;;;7.70;;
8640;SDS011;4358;42.100;25.222;2023-07-29T01:51:13;6.17;;;5.57;;
8640;SDS011;4358;42.100;25.222;2023-07-29T01:53:40;7.27;;;4.50;;
8640;SDS011;4358;42.100;25.222;2023-07-29T01:56:08;5.40;;;4.50;;
8640;SDS011;4358;42.100;25.222;2023-07-29T01:58:35;8.73;;;6.60;;
8640;SDS011;4358;42.100;25.222;2023-07-29T02:01:02;11.43;;;10.33;;
8640;SDS011;4358;42.100;25.222;2023-07-29T02:03:29;12.70;;;9.93;;
8640;SDS011;4358;42.100;25.222;2023-07-29T02:05:56;14.00;;;12.60;;
8640;SDS011;4358;42.100;25.222;2023-07-29T02:08:23;13.17;;;11.93;;
8640;SDS011;4358;42.100;25.222;2023-07-29T02:10:50;16.60;;;14.00;;
8640;SDS011;4358;42.100;25.222;2023-07-29T02:13:18;15.93;;;14.30;;
8640;SDS011;4358;42.100;25.222;2023-07-29T02:15:44;15.53;;;13.83;;
8640;SDS011;4358;42.100;25.222;2023-07-29T02:18:11;16.13;;;14.43;;
8640;SDS011;4358;42.100;25.222;2023-07-29T02:20:38;14.83;;;12.47;;
8640;SDS011;4358;42.100;25.222;2023-07-29T02:23:05;15.63;;;13.70;;
8640;SDS011;4358;42.100;25.222;2023-07-29T02:25:34;17.17;;;15.30;;
8640;SDS011;4358;42.100;25.222;2023-07-29T02:28:01;16.70;;;15.00;;
8640;SDS011;4358;42.100;25.222;2023-07-29T02:30:30;15.60;;;13.00;;
8640;SDS011;4358;42.100;25.222;2023-07-29T02:32:57;15.07;;;12.40;;
8640;SDS011;4358;42.100;25.222;2023-07-29T02:35:25;14.07;;;12.43;;
8640;SDS011;4358;42.100;25.222;2023-07-29T02:37:51;15.57;;;14.00;;
8640;SDS011;4358;42.100;25.222;2023-07-29T02:40:18;17.33;;;13.90;;
8640;SDS011;4358;42.100;25.222;2023-07-29T02:42:46;15.80;;;13.33;;
8640;SDS011;4358;42.100;25.222;2023-07-29T02:45:13;14.47;;;12.90;;
8640;SDS011;4358;42.100;25.222;2023-07-29T02:47:41;15.03;;;12.10;;
8640;SDS011;4358;42.100;25.222;2023-07-29T02:50:08;14.37;;;12.90;;
8640;SDS011;4358;42.100;25.222;2023-07-29T02:52:35;14.27;;;12.73;;
8640;SDS011;4358;42.100;25.222;2023-07-29T02:55:02;16.13;;;13.83;;
8640;SDS011;4358;42.100;25.222;2023-07-29T02:57:29;12.43;;;10.90;;
8640;SDS011;4358;42.100;25.222;2023-07-29T02:59:55;6.70;;;5.90;;
8640;SDS011;4358;42.100;25.222;2023-07-29T03:02:22;5.07;;;4.50;;
8640;SDS011;4358;42.100;25.222;2023-07-29T03:04:50;6.57;;;5.53;;
8640;SDS011;4358;42.100;25.222;2023-07-29T03:07:17;5.23;;;4.63;;
8640;SDS011;4358;42.100;25.222;2023-07-29T03:09:45;6.87;;;4.10;;
8640;SDS011;4358;42.100;25.222;2023-07-29T03:12:12;5.00;;;3.87;;
8640;SDS011;4358;42.100;25.222;2023-07-29T03:14:39;6.20;;;4.00;;
8640;SDS011;4358;42.100;25.222;2023-07-29T03:17:06;4.73;;;4.07;;
8640;SDS011;4358;42.100;25.222;2023-07-29T03:19:33;5.80;;;4.03;;
8640;SDS011;4358;42.100;25.222;2023-07-29T03:22:01;4.87;;;4.07;;
8640;SDS011;4358;42.100;25.222;2023-07-29T03:24:28;4.70;;;4.10;;
8640;SDS011;4358;42.100;25.222;2023-07-29T03:26:55;6.57;;;4.10;;
8640;SDS011;4358;42.100;25.222;2023-07-29T03:29:22;4.97;;;4.20;;
8640;SDS011;4358;42.100;25.222;2023-07-29T03:31:48;6.63;;;4.20;;
8640;SDS011;4358;42.100;25.222;2023-07-29T03:34:15;4.57;;;4.17;;
8640;SDS011;4358;42.100;25.222;2023-07-29T03:36:42;5.10;;;4.23;;
8640;SDS011;4358;42.100;25.222;2023-07-29T03:39:12;6.20;;;5.30;;
8640;SDS011;4358;42.100;25.222;2023-07-29T03:41:39;7.20;;;5.73;;
8640;SDS011;4358;42.100;25.222;2023-07-29T03:44:06;9.10;;;5.77;;
8640;SDS011;4358;42.100;25.222;2023-07-29T03:46:32;9.83;;;6.73;;
8640;SDS011;4358;42.100;25.222;2023-07-29T03:48:59;12.97;;;8.93;;
8640;SDS011;4358;42.100;25.222;2023-07-29T03:51:26;9.57;;;5.30;;
8640;SDS011;4358;42.100;25.222;2023-07-29T03:53:53;5.37;;;4.40;;
8640;SDS011;4358;42.100;25.222;2023-07-29T03:56:21;6.87;;;5.27;;
8640;SDS011;4358;42.100;25.222;2023-07-29T03:58:48;7.93;;;7.23;;
8640;SDS011;4358;42.100;25.222;2023-07-29T04:01:14;13.13;;;10.60;;
8640;SDS011;4358;42.100;25.222;2023-07-29T04:03:41;17.23;;;14.37;;
8640;SDS011;4358;42.100;25.222;2023-07-29T04:06:08;10.73;;;9.47;;
8640;SDS011;4358;42.100;25.222;2023-07-29T04:08:35;9.40;;;8.47;;
8640;SDS011;4358;42.100;25.222;2023-07-29T04:11:02;9.87;;;7.33;;
8640;SDS011;4358;42.100;25.222;2023-07-29T04:13:30;7.63;;;6.60;;
8640;SDS011;4358;42.100;25.222;2023-07-29T04:15:57;9.13;;;7.13;;
8640;SDS011;4358;42.100;25.222;2023-07-29T04:18:24;7.83;;;7.03;;
8640;SDS011;4358;42.100;25.222;2023-07-29T04:20:50;9.33;;;8.33;;
8640;SDS011;4358;42.100;25.222;2023-07-29T04:23:17;11.10;;;8.13;;
8640;SDS011;4358;42.100;25.222;2023-07-29T04:25:44;8.70;;;6.90;;
8640;SDS011;4358;42.100;25.222;2023-07-29T04:28:11;7.47;;;6.43;;
8640;SDS011;4358;42.100;25.222;2023-07-29T04:30:39;9.07;;;5.47;;
8640;SDS011;4358;42.100;25.222;2023-07-29T04:33:06;6.87;;;5.43;;
8640;SDS011;4358;42.100;25.222;2023-07-29T04:35:33;5.30;;;4.80;;
8640;SDS011;4358;42.100;25.222;2023-07-29T04:37:59;4.87;;;4.37;;
8640;SDS011;4358;42.100;25.222;2023-07-29T04:40:26;5.80;;;4.33;;
8640;SDS011;4358;42.100;25.222;2023-07-29T04:42:53;8.43;;;4.67;;
8640;SDS011;4358;42.100;25.222;2023-07-29T04:45:20;5.63;;;4.10;;
8640;SDS011;4358;42.100;25.222;2023-07-29T04:47:48;5.03;;;4.10;;
8640;SDS011;4358;42.100;25.222;2023-07-29T04:50:15;5.93;;;4.10;;
8640;SDS011;4358;42.100;25.222;2023-07-29T04:52:42;6.00;;;3.70;;
8640;SDS011;4358;42.100;25.222;2023-07-29T04:55:08;5.23;;;3.93;;
8640;SDS011;4358;42.100;25.222;2023-07-29T04:57:35;7.33;;;3.93;;
8640;SDS011;4358;42.100;25.222;2023-07-29T05:00:02;4.67;;;3.50;;
8640;SDS011;4358;42.100;25.222;2023-07-29T05:02:29;3.83;;;3.20;;
8640;SDS011;4358;42.100;25.222;2023-07-29T05:04:57;7.57;;;3.90;;
8640;SDS011;4358;42.100;25.222;2023-07-29T05:07:24;4.93;;;3.13;;
8640;SDS011;4358;42.100;25.222;2023-07-29T05:09:51;4.90;;;3.63;;
8640;SDS011;4358;42.100;25.222;2023-07-29T05:12:18;6.17;;;3.30;;
8640;SDS011;4358;42.100;25.222;2023-07-29T05:14:44;5.97;;;2.80;;
8640;SDS011;4358;42.100;25.222;2023-07-29T05:17:11;4.47;;;3.27;;
8640;SDS011;4358;42.100;25.222;2023-07-29T05:19:38;7.80;;;3.47;;
8640;SDS011;4358;42.100;25.222;2023-07-29T05:22:06;3.73;;;3.17;;
8640;SDS011;4358;42.100;25.222;2023-07-29T05:24:33;3.33;;;3.00;;
8640;SDS011;4358;42.100;25.222;2023-07-29T05:26:59;4.80;;;3.10;;
8640;SDS011;4358;42.100;25.222;2023-07-29T05:29:26;4.93;;;2.97;;
8640;SDS011;4358;42.100;25.222;2023-07-29T05:31:53;5.37;;;3.03;;
8640;SDS011;4358;42.100;25.222;2023-07-29T05:34:20;2.83;;;2.63;;
8640;SDS011;4358;42.100;25.222;2023-07-29T05:36:47;5.93;;;3.20;;
8640;SDS011;4358;42.100;25.222;2023-07-29T05:39:15;6.93;;;3.10;;
8640;SDS011;4358;42.100;25.222;2023-07-29T05:41:41;3.00;;;2.70;;
8640;SDS011;4358;42.100;25.222;2023-07-29T05:44:08;3.50;;;2.70;;
8640;SDS011;4358;42.100;25.222;2023-07-29T05:46:35;3.47;;;2.90;;
8640;SDS011;4358;42.100;25.222;2023-07-29T05:49:02;3.53;;;3.10;;
8640;SDS011;4358;42.100;25.222;2023-07-29T05:51:29;3.20;;;2.90;;
8640;SDS011;4358;42.100;25.222;2023-07-29T05:53:55;3.73;;;3.07;;
8640;SDS011;4358;42.100;25.222;2023-07-29T05:56:24;6.63;;;4.37;;
8640;SDS011;4358;42.100;25.222;2023-07-29T05:58:50;3.57;;;3.20;;
8640;SDS011;4358;42.100;25.222;2023-07-29T06:01:17;3.30;;;2.73;;
8640;SDS011;4358;42.100;25.222;2023-07-29T06:03:46;3.40;;;3.10;;
8640;SDS011;4358;42.100;25.222;2023-07-29T06:06:13;4.67;;;3.33;;
8640;SDS011;4358;42.100;25.222;2023-07-29T06:08:40;4.60;;;3.33;;
8640;SDS011;4358;42.100;25.222;2023-07-29T06:11:06;4.17;;;3.10;;
8640;SDS011;4358;42.100;25.222;2023-07-29T06:13:35;4.87;;;3.63;;
8640;SDS011;4358;42.100;25.222;2023-07-29T06:16:02;7.17;;;3.30;;
8640;SDS011;4358;42.100;25.222;2023-07-29T06:18:28;4.50;;;3.10;;
8640;SDS011;4358;42.100;25.222;2023-07-29T06:20:55;4.33;;;3.40;;
8640;SDS011;4358;42.100;25.222;2023-07-29T06:23:22;4.83;;;3.10;;
8640;SDS011;4358;42.100;25.222;2023-07-29T06:25:49;3.33;;;3.03;;
8640;SDS011;4358;42.100;25.222;2023-07-29T06:28:16;3.50;;;3.20;;
8640;SDS011;4358;42.100;25.222;2023-07-29T06:30:44;3.47;;;3.10;;
8640;SDS011;4358;42.100;25.222;2023-07-29T06:33:11;3.47;;;3.10;;
8640;SDS011;4358;42.100;25.222;2023-07-29T06:35:38;4.27;;;3.87;;
8640;SDS011;4358;42.100;25.222;2023-07-29T06:38:05;4.00;;;3.30;;
8640;SDS011;4358;42.100;25.222;2023-07-29T06:40:31;3.73;;;3.30;;
8640;SDS011;4358;42.100;25.222;2023-07-29T06:42:58;3.70;;;3.10;;
8640;SDS011;4358;42.100;25.222;2023-07-29T06:45:25;4.20;;;2.93;;
8640;SDS011;4358;42.100;25.222;2023-07-29T06:47:54;3.10;;;2.90;;
8640;SDS011;4358;42.100;25.222;2023-07-29T06:50:20;10.00;;;4.50;;
8640;SDS011;4358;42.100;25.222;2023-07-29T06:52:47;3.90;;;2.97;;
8640;SDS011;4358;42.100;25.222;2023-07-29T06:55:14;5.10;;;3.33;;
8640;SDS011;4358;42.100;25.222;2023-07-29T06:57:41;2.73;;;2.53;;
8640;SDS011;4358;42.100;25.222;2023-07-29T07:00:08;4.50;;;3.00;;
8640;SDS011;4358;42.100;25.222;2023-07-29T07:02:35;3.30;;;3.00;;
8640;SDS011;4358;42.100;25.222;2023-07-29T07:05:04;2.90;;;2.70;;
8640;SDS011;4358;42.100;25.222;2023-07-29T07:07:31;4.53;;;3.00;;
8640;SDS011;4358;42.100;25.222;2023-07-29T07:09:58;3.53;;;2.90;;
8640;SDS011;4358;42.100;25.222;2023-07-29T07:12:25;3.37;;;3.00;;
8640;SDS011;4358;42.100;25.222;2023-07-29T07:14:52;3.43;;;3.13;;
8640;SDS011;4358;42.100;25.222;2023-07-29T07:17:18;3.60;;;3.30;;
8640;SDS011;4358;42.100;25.222;2023-07-29T07:19:45;3.43;;;3.13;;
8640;SDS011;4358;42.100;25.222;2023-07-29T07:22:14;4.03;;;3.13;;
8640;SDS011;4358;42.100;25.222;2023-07-29T07:24:41;3.47;;;3.17;;
8640;SDS011;4358;42.100;25.222;2023-07-29T07:27:07;5.70;;;4.00;;
8640;SDS011;4358;42.100;25.222;2023-07-29T07:29:34;6.77;;;3.43;;
8640;SDS011;4358;42.100;25.222;2023-07-29T07:32:01;3.30;;;2.93;;
8640;SDS011;4358;42.100;25.222;2023-07-29T07:34:28;3.40;;;3.10;;
8640;SDS011;4358;42.100;25.222;2023-07-29T07:36:55;4.60;;;3.20;;
8640;SDS011;4358;42.100;25.222;2023-07-29T07:39:23;5.03;;;4.20;;
8640;SDS011;4358;42.100;25.222;2023-07-29T07:41:50;3.40;;;3.10;;
8640;SDS011;4358;42.100;25.222;2023-07-29T07:44:16;5.20;;;3.33;;
8640;SDS011;4358;42.100;25.222;2023-07-29T07:46:44;5.63;;;3.60;;
8640;SDS011;4358;42.100;25.222;2023-07-29T07:49:11;7.33;;;3.47;;
8640;SDS011;4358;42.100;25.222;2023-07-29T07:51:38;8.53;;;5.73;;
8640;SDS011;4358;42.100;25.222;2023-07-29T07:54:05;3.67;;;3.33;;
8640;SDS011;4358;42.100;25.222;2023-07-29T07:56:33;3.67;;;3.35;;
8640;SDS011;4358;42.100;25.222;2023-07-29T07:59:00;4.72;;;3.33;;
8640;SDS011;4358;42.100;25.222;2023-07-29T08:01:27;3.95;;;3.20;;
8640;SDS011;4358;42.100;25.222;2023-07-29T08:03:54;3.50;;;3.20;;
8640;SDS011;4358;42.100;25.222;2023-07-29T08:06:20;4.50;;;3.53;;
8640;SDS011;4358;42.100;25.222;2023-07-29T08:08:47;5.60;;;3.00;;
8640;SDS011;4358;42.100;25.222;2023-07-29T08:11:14;3.90;;;2.97;;
8640;SDS011;4358;42.100;25.222;2023-07-29T08:13:42;3.22;;;2.95;;
8640;SDS011;4358;42.100;25.222;2023-07-29T08:16:09;3.92;;;2.90;;
8640;SDS011;4358;42.100;25.222;2023-07-29T08:18:36;3.35;;;2.95;;
8640;SDS011;4358;42.100;25.222;2023-07-29T08:21:03;4.70;;;3.05;;
8640;SDS011;4358;42.100;25.222;2023-07-29T08:23:30;3.40;;;3.10;;
8640;SDS011;4358;42.100;25.222;2023-07-29T08:25:58;2.85;;;2.60;;
8640;SDS011;4358;42.100;25.222;2023-07-29T08:28:27;3.25;;;2.95;;
8640;SDS011;4358;42.100;25.222;2023-07-29T08:30:56;3.63;;;3.03;;
8640;SDS011;4358;42.100;25.222;2023-07-29T08:33:23;3.17;;;2.97;;
8640;SDS011;4358;42.100;25.222;2023-07-29T08:35:50;3.08;;;2.60;;
8640;SDS011;4358;42.100;25.222;2023-07-29T08:38:17;4.75;;;4.10;;
8640;SDS011;4358;42.100;25.222;2023-07-29T08:40:45;3.65;;;2.75;;
8640;SDS011;4358;42.100;25.222;2023-07-29T08:43:16;3.13;;;2.83;;
8640;SDS011;4358;42.100;25.222;2023-07-29T08:45:45;3.00;;;2.70;;
8640;SDS011;4358;42.100;25.222;2023-07-29T08:48:15;3.95;;;2.40;;
8640;SDS011;4358;42.100;25.222;2023-07-29T08:50:49;4.43;;;2.53;;
8640;SDS011;4358;42.100;25.222;2023-07-29T08:53:18;3.45;;;2.70;;
8640;SDS011;4358;42.100;25.222;2023-07-29T08:55:45;3.67;;;2.80;;
8640;SDS011;4358;42.100;25.222;2023-07-29T08:58:13;2.65;;;2.42;;
8640;SDS011;4358;42.100;25.222;2023-07-29T09:00:40;2.72;;;2.50;;
8640;SDS011;4358;42.100;25.222;2023-07-29T09:03:07;3.63;;;2.70;;
8640;SDS011;4358;42.100;25.222;2023-07-29T09:05:36;2.70;;;2.33;;
8640;SDS011;4358;42.100;25.222;2023-07-29T09:08:03;3.13;;;2.60;;
8640;SDS011;4358;42.100;25.222;2023-07-29T09:10:34;4.18;;;2.70;;
8640;SDS011;4358;42.100;25.222;2023-07-29T09:13:02;2.85;;;2.65;;
8640;SDS011;4358;42.100;25.222;2023-07-29T09:15:30;5.25;;;2.65;;
8640;SDS011;4358;42.100;25.222;2023-07-29T09:17:57;2.92;;;2.53;;
8640;SDS011;4358;42.100;25.222;2023-07-29T09:20:25;2.70;;;2.50;;
8640;SDS011;4358;42.100;25.222;2023-07-29T09:22:54;2.35;;;2.15;;
8640;SDS011;4358;42.100;25.222;2023-07-29T09:25:24;7.63;;;2.70;;
8640;SDS011;4358;42.100;25.222;2023-07-29T09:27:51;5.22;;;3.17;;
8640;SDS011;4358;42.100;25.222;2023-07-29T09:30:18;3.50;;;2.40;;
8640;SDS011;4358;42.100;25.222;2023-07-29T09:32:45;2.50;;;2.30;;
8640;SDS011;4358;42.100;25.222;2023-07-29T09:35:12;2.63;;;2.42;;
8640;SDS011;4358;42.100;25.222;2023-07-29T09:37:39;3.05;;;2.53;;
8640;SDS011;4358;42.100;25.222;2023-07-29T09:40:12;4.13;;;2.30;;
8640;SDS011;4358;42.100;25.222;2023-07-29T09:42:41;2.38;;;2.17;;
8640;SDS011;4358;42.100;25.222;2023-07-29T09:45:18;3.03;;;2.47;;
8640;SDS011;4358;42.100;25.222;2023-07-29T09:47:47;3.42;;;2.42;;
8640;SDS011;4358;42.100;25.222;2023-07-29T09:50:14;5.45;;;2.20;;
8640;SDS011;4358;42.100;25.222;2023-07-29T09:52:41;2.30;;;2.13;;
8640;SDS011;4358;42.100;25.222;2023-07-29T09:55:11;2.65;;;2.45;;
8640;SDS011;4358;42.100;25.222;2023-07-29T09:57:39;2.70;;;2.50;;
8640;SDS011;4358;42.100;25.222;2023-07-29T10:00:06;2.83;;;2.60;;
8640;SDS011;4358;42.100;25.222;2023-07-29T10:02:36;4.30;;;2.78;;
8640;SDS011;4358;42.100;25.222;2023-07-29T10:05:04;2.67;;;2.33;;
8640;SDS011;4358;42.100;25.222;2023-07-29T10:07:33;2.60;;;2.20;;
8640;SDS011;4358;42.100;25.222;2023-07-29T10:10:01;2.53;;;2.25;;
8640;SDS011;4358;42.100;25.222;2023-07-29T10:12:29;3.05;;;2.45;;
8640;SDS011;4358;42.100;25.222;2023-07-29T10:14:58;2.42;;;2.05;;
8640;SDS011;4358;42.100;25.222;2023-07-29T10:17:26;4.22;;;2.10;;
8640;SDS011;4358;42.100;25.222;2023-07-29T10:19:53;3.42;;;2.40;;
8640;SDS011;4358;42.100;25.222;2023-07-29T10:22:24;2.53;;;2.30;;
8640;SDS011;4358;42.100;25.222;2023-07-29T10:24:51;2.63;;;2.42;;
8640;SDS011;4358;42.100;25.222;2023-07-29T10:27:20;2.90;;;2.50;;
8640;SDS011;4358;42.100;25.222;2023-07-29T10:29:52;2.60;;;2.40;;
8640;SDS011;4358;42.100;25.222;2023-07-29T10:32:22;4.45;;;2.15;;
8640;SDS011;4358;42.100;25.222;2023-07-29T10:34:51;2.90;;;2.10;;
8640;SDS011;4358;42.100;25.222;2023-07-29T10:37:18;2.03;;;1.83;;
8640;SDS011;4358;42.100;25.222;2023-07-29T10:39:51;2.35;;;2.15;;
8640;SDS011;4358;42.100;25.222;2023-07-29T10:42:19;2.03;;;1.90;;
8640;SDS011;4358;42.100;25.222;2023-07-29T10:44:47;2.42;;;2.22;;
8640;SDS011;4358;42.100;25.222;2023-07-29T10:47:16;2.25;;;2.15;;
8640;SDS011;4358;42.100;25.222;2023-07-29T10:49:45;1.98;;;1.83;;
8640;SDS011;4358;42.100;25.222;2023-07-29T10:52:13;2.38;;;2.17;;
8640;SDS011;4358;42.100;25.222;2023-07-29T10:54:44;2.92;;;2.30;;
8640;SDS011;4358;42.100;25.222;2023-07-29T10:57:14;2.58;;;2.08;;
8640;SDS011;4358;42.100;25.222;2023-07-29T10:59:43;2.00;;;1.90;;
8640;SDS011;4358;42.100;25.222;2023-07-29T11:02:27;2.08;;;1.88;;
8640;SDS011;4358;42.100;25.222;2023-07-29T11:04:56;3.55;;;2.00;;
8640;SDS011;4358;42.100;25.222;2023-07-29T11:07:24;2.00;;;1.90;;
8640;SDS011;4358;42.100;25.222;2023-07-29T11:09:58;2.00;;;1.90;;
8640;SDS011;4358;42.100;25.222;2023-07-29T11:12:35;2.00;;;1.90;;
8640;SDS011;4358;42.100;25.222;2023-07-29T11:15:04;2.45;;;2.25;;
8640;SDS011;4358;42.100;25.222;2023-07-29T11:17:40;3.97;;;1.92;;
8640;SDS011;4358;42.100;25.222;2023-07-29T11:20:08;2.38;;;2.17;;
8640;SDS011;4358;42.100;25.222;2023-07-29T11:22:35;2.28;;;2.08;;
8640;SDS011;4358;42.100;25.222;2023-07-29T11:25:03;2.65;;;1.92;;
8640;SDS011;4358;42.100;25.222;2023-07-29T11:27:31;2.10;;;1.90;;
8640;SDS011;4358;42.100;25.222;2023-07-29T11:29:58;1.95;;;1.85;;
8640;SDS011;4358;42.100;25.222;2023-07-29T11:32:26;2.17;;;1.70;;
8640;SDS011;4358;42.100;25.222;2023-07-29T11:34:54;1.85;;;1.75;;
8640;SDS011;4358;42.100;25.222;2023-07-29T11:37:21;1.80;;;1.70;;
8640;SDS011;4358;42.100;25.222;2023-07-29T11:39:48;1.70;;;1.60;;
8640;SDS011;4358;42.100;25.222;2023-07-29T11:42:16;2.80;;;1.67;;
8640;SDS011;4358;42.100;25.222;2023-07-29T11:44:43;1.70;;;1.52;;
8640;SDS011;4358;42.100;25.222;2023-07-29T11:47:12;2.58;;;1.90;;
8640;SDS011;4358;42.100;25.222;2023-07-29T11:49:39;1.55;;;1.38;;
8640;SDS011;4358;42.100;25.222;2023-07-29T11:52:09;4.38;;;2.38;;
8640;SDS011;4358;42.100;25.222;2023-07-29T11:54:37;1.70;;;1.60;;
8640;SDS011;4358;42.100;25.222;2023-07-29T11:57:05;4.13;;;1.80;;
8640;SDS011;4358;42.100;25.222;2023-07-29T11:59:33;1.83;;;1.60;;
8640;SDS011;4358;42.100;25.222;2023-07-29T12:02:01;2.13;;;1.70;;
8640;SDS011;4358;42.100;25.222;2023-07-29T12:04:28;2.47;;;1.85;;
8640;SDS011;4358;42.100;25.222;2023-07-29T12:06:56;4.82;;;4.40;;
8640;SDS011;4358;42.100;25.222;2023-07-29T12:09:24;2.30;;;2.10;;
8640;SDS011;4358;42.100;25.222;2023-07-29T12:11:53;2.10;;;1.70;;
8640;SDS011;4358;42.100;25.222;2023-07-29T12:14:20;2.00;;;1.80;;
8640;SDS011;4358;42.100;25.222;2023-07-29T12:16:47;2.10;;;1.90;;
8640;SDS011;4358;42.100;25.222;2023-07-29T12:19:17;1.95;;;1.70;;
8640;SDS011;4358;42.100;25.222;2023-07-29T12:21:44;2.00;;;1.88;;
8640;SDS011;4358;42.100;25.222;2023-07-29T12:24:11;2.45;;;1.95;;
8640;SDS011;4358;42.100;25.222;2023-07-29T12:26:40;1.60;;;1.50;;
8640;SDS011;4358;42.100;25.222;2023-07-29T12:29:11;3.97;;;1.80;;
8640;SDS011;4358;42.100;25.222;2023-07-29T12:31:39;1.63;;;1.52;;
8640;SDS011;4358;42.100;25.222;2023-07-29T12:34:06;1.98;;;1.80;;
8640;SDS011;4358;42.100;25.222;2023-07-29T12:36:42;1.60;;;1.50;;
8640;SDS011;4358;42.100;25.222;2023-07-29T12:39:16;1.58;;;1.48;;
8640;SDS011;4358;42.100;25.222;2023-07-29T12:41:48;1.75;;;1.65;;
8640;SDS011;4358;42.100;25.222;2023-07-29T12:44:16;1.90;;;1.60;;
8640;SDS011;4358;42.100;25.222;2023-07-29T12:46:43;1.60;;;1.50;;
8640;SDS011;4358;42.100;25.222;2023-07-29T12:49:10;1.70;;;1.60;;
8640;SDS011;4358;42.100;25.222;2023-07-29T12:51:37;2.33;;;1.60;;
8640;SDS011;4358;42.100;25.222;2023-07-29T12:54:04;1.80;;;1.52;;
8640;SDS011;4358;42.100;25.222;2023-07-29T12:56:32;1.42;;;1.33;;
8640;SDS011;4358;42.100;25.222;2023-07-29T12:59:01;5.20;;;2.15;;
8640;SDS011;4358;42.100;25.222;2023-07-29T13:01:28;2.58;;;2.08;;
8640;SDS011;4358;42.100;25.222;2023-07-29T13:03:55;1.58;;;1.48;;
8640;SDS011;4358;42.100;25.222;2023-07-29T13:06:22;1.70;;;1.60;;
8640;SDS011;4358;42.100;25.222;2023-07-29T13:08:49;1.90;;;1.70;;
8640;SDS011;4358;42.100;25.222;2023-07-29T13:11:16;2.22;;;1.90;;
8640;SDS011;4358;42.100;25.222;2023-07-29T13:13:43;3.05;;;1.80;;
8640;SDS011;4358;42.100;25.222;2023-07-29T13:16:12;1.88;;;1.77;;
8640;SDS011;4358;42.100;25.222;2023-07-29T13:18:39;1.58;;;1.48;;
8640;SDS011;4358;42.100;25.222;2023-07-29T13:21:06;1.67;;;1.40;;
8640;SDS011;4358;42.100;25.222;2023-07-29T13:23:33;1.60;;;1.30;;
8640;SDS011;4358;42.100;25.222;2023-07-29T13:26:00;1.60;;;1.50;;
8640;SDS011;4358;42.100;25.222;2023-07-29T13:28:27;4.70;;;1.50;;
8640;SDS011;4358;42.100;25.222;2023-07-29T13:30:54;1.50;;;1.40;;
8640;SDS011;4358;42.100;25.222;2023-07-29T13:33:22;1.55;;;1.45;;
8640;SDS011;4358;42.100;25.222;2023-07-29T13:35:48;1.50;;;1.40;;
8640;SDS011;4358;42.100;25.222;2023-07-29T13:38:15;1.60;;;1.50;;
8640;SDS011;4358;42.100;25.222;2023-07-29T13:40:42;1.77;;;1.67;;
8640;SDS011;4358;42.100;25.222;2023-07-29T13:43:09;1.63;;;1.52;;
8640;SDS011;4358;42.100;25.222;2023-07-29T13:45:36;1.40;;;1.30;;
8640;SDS011;4358;42.100;25.222;2023-07-29T13:48:03;1.67;;;1.58;;
8640;SDS011;4358;42.100;25.222;2023-07-29T13:50:31;1.88;;;1.60;;
8640;SDS011;4358;42.100;25.222;2023-07-29T13:52:58;1.80;;;1.50;;
8640;SDS011;4358;42.100;25.222;2023-07-29T13:55:25;1.70;;;1.50;;
8640;SDS011;4358;42.100;25.222;2023-07-29T13:57:52;1.58;;;1.48;;
8640;SDS011;4358;42.100;25.222;2023-07-29T14:00:19;2.08;;;1.38;;
8640;SDS011;4358;42.100;25.222;2023-07-29T14:02:46;1.50;;;1.40;;
8640;SDS011;4358;42.100;25.222;2023-07-29T14:05:13;1.50;;;1.40;;
8640;SDS011;4358;42.100;25.222;2023-07-29T14:07:42;1.55;;;1.45;;
8640;SDS011;4358;42.100;25.222;2023-07-29T14:10:08;1.60;;;1.50;;
8640;SDS011;4358;42.100;25.222;2023-07-29T14:12:35;1.67;;;1.40;;
8640;SDS011;4358;42.100;25.222;2023-07-29T14:15:03;3.95;;;1.60;;
8640;SDS011;4358;42.100;25.222;2023-07-29T14:17:31;1.70;;;1.40;;
8640;SDS011;4358;42.100;25.222;2023-07-29T14:19:58;1.83;;;1.63;;
8640;SDS011;4358;42.100;25.222;2023-07-29T14:22:25;1.50;;;1.40;;
8640;SDS011;4358;42.100;25.222;2023-07-29T14:24:53;2.67;;;1.40;;
8640;SDS011;4358;42.100;25.222;2023-07-29T14:27:20;1.73;;;1.50;;
8640;SDS011;4358;42.100;25.222;2023-07-29T14:29:46;1.70;;;1.60;;
8640;SDS011;4358;42.100;25.222;2023-07-29T14:32:13;1.70;;;1.60;;
8640;SDS011;4358;42.100;25.222;2023-07-29T14:34:40;1.92;;;1.58;;
8640;SDS011;4358;42.100;25.222;2023-07-29T14:37:07;1.60;;;1.50;;
8640;SDS011;4358;42.100;25.222;2023-07-29T14:39:33;1.65;;;1.55;;
8640;SDS011;4358;42.100;25.222;2023-07-29T14:42:02;1.40;;;1.30;;
8640;SDS011;4358;42.100;25.222;2023-07-29T14:44:28;3.75;;;1.60;;
8640;SDS011;4358;42.100;25.222;2023-07-29T14:46:55;2.13;;;1.70;;
8640;SDS011;4358;42.100;25.222;2023-07-29T14:49:22;1.73;;;1.40;;
8640;SDS011;4358;42.100;25.222;2023-07-29T14:51:49;1.60;;;1.50;;
8640;SDS011;4358;42.100;25.222;2023-07-29T14:54:16;1.73;;;1.55;;
8640;SDS011;4358;42.100;25.222;2023-07-29T14:56:43;1.70;;;1.60;;
8640;SDS011;4358;42.100;25.222;2023-07-29T14:59:11;1.50;;;1.40;;
8640;SDS011;4358;42.100;25.222;2023-07-29T15:01:37;1.88;;;1.77;;